createdAt,value
2015-10-26T00:00:11.458Z,64.33
2015-10-26T00:00:23.771Z,64.42
2015-10-26T00:00:36.083Z,64.33
2015-10-26T00:00:48.383Z,64.49
2015-10-26T00:01:00.680Z,63.95
2015-10-26T00:01:12.992Z,64.04
2015-10-26T00:01:25.305Z,63.67
2015-10-26T00:01:37.633Z,63.85
2015-10-26T00:01:49.949Z,63.85
2015-10-26T00:02:02.277Z,63.95
2015-10-26T00:02:14.605Z,63.67
2015-10-26T00:02:26.949Z,63.57
2015-10-26T00:02:39.261Z,63.48
2015-10-26T00:02:51.561Z,63.73
2015-10-26T00:03:03.858Z,63.85
2015-10-26T00:03:16.155Z,63.82
2015-10-26T00:03:28.467Z,63.39
2015-10-26T00:03:40.764Z,63.35
2015-10-26T00:03:53.064Z,63.57
2015-10-26T00:04:05.361Z,63.48
2015-10-26T00:04:17.689Z,63.57
2015-10-26T00:04:30.001Z,63.45
2015-10-26T00:04:42.298Z,63.48
2015-10-26T00:04:54.613Z,63.57
2015-10-26T00:05:06.941Z,63.48
2015-10-26T00:05:19.253Z,63.29
2015-10-26T00:05:31.566Z,63.67
2015-10-26T00:05:43.878Z,63.54
2015-10-26T00:05:56.210Z,63.48
2015-10-26T00:06:08.538Z,63.54
2015-10-26T00:06:20.866Z,63.45
2015-10-26T00:06:33.210Z,63.76
2015-10-26T00:06:45.491Z,63.76
2015-10-26T00:06:57.805Z,63.85
2015-10-26T00:07:10.102Z,63.95
2015-10-26T00:07:22.399Z,63.48
2015-10-26T00:07:34.712Z,63.67
2015-10-26T00:07:47.008Z,63.76
2015-10-26T00:07:59.309Z,63.95
2015-10-26T00:08:11.606Z,63.57
2015-10-26T00:08:23.919Z,63.67
2015-10-26T00:08:36.231Z,63.76
2015-10-26T00:08:48.528Z,63.76
2015-10-26T00:09:00.843Z,63.39
2015-10-26T00:09:13.155Z,63.39
2015-10-26T00:09:25.468Z,63.29
2015-10-26T00:09:37.780Z,63.67
2015-10-26T00:09:50.108Z,63.67
2015-10-26T00:10:02.438Z,63.29
2015-10-26T00:10:14.766Z,63.1
2015-10-26T00:10:27.063Z,62.91
2015-10-26T00:10:39.360Z,62.62
2015-10-26T00:10:51.657Z,62.91
2015-10-26T00:11:03.957Z,62.62
2015-10-26T00:11:16.285Z,62.82
2015-10-26T00:11:28.582Z,62.62
2015-10-26T00:11:40.879Z,62.43
2015-10-26T00:11:53.207Z,62.43
2015-10-26T00:12:05.522Z,62.34
2015-10-26T00:12:17.835Z,62.53
2015-10-26T00:12:30.147Z,62.62
2015-10-26T00:12:42.476Z,62.62
2015-10-26T00:12:54.804Z,62.62
2015-10-26T00:13:07.135Z,62.72
2015-10-26T00:13:19.479Z,62.82
2015-10-26T00:13:31.775Z,62.43
2015-10-26T00:13:44.088Z,62.05
2015-10-26T00:13:56.385Z,62.62
2015-10-26T00:14:08.685Z,62.43
2015-10-26T00:14:20.997Z,62.34
2015-10-26T00:14:33.310Z,62.34
2015-10-26T00:14:45.622Z,62.24
2015-10-26T00:14:57.919Z,62.34
2015-10-26T00:15:10.077Z,62.43
2015-10-26T00:15:22.374Z,62.34
2015-10-26T00:15:34.687Z,62.43
2015-10-26T00:15:47.015Z,62.24
2015-10-26T00:15:59.312Z,62.53
2015-10-26T00:16:11.658Z,62.62
2015-10-26T00:16:24.002Z,62.62
2015-10-26T00:16:36.299Z,62.62
2015-10-26T00:16:48.596Z,62.43
2015-10-26T00:17:00.893Z,62.34
2015-10-26T00:17:13.193Z,62.34
2015-10-26T00:17:25.505Z,62.34
2015-10-26T00:17:37.802Z,62.62
2015-10-26T00:17:50.099Z,62.43
2015-10-26T00:18:02.396Z,62.43
2015-10-26T00:18:14.711Z,62.53
2015-10-26T00:18:27.008Z,62.82
2015-10-26T00:18:39.305Z,62.82
2015-10-26T00:18:51.586Z,62.72
2015-10-26T00:19:03.899Z,62.72
2015-10-26T00:19:16.199Z,62.82
2015-10-26T00:19:28.496Z,62.91
2015-10-26T00:19:40.808Z,62.72
2015-10-26T00:19:53.136Z,62.43
2015-10-26T00:20:05.464Z,62.82
2015-10-26T00:20:17.794Z,63.01
2015-10-26T00:20:30.123Z,62.62
2015-10-26T00:20:42.419Z,62.82
2015-10-26T00:20:54.716Z,63.01
2015-10-26T00:21:07.029Z,63.39
2015-10-26T00:21:19.329Z,63.39
2015-10-26T00:21:31.641Z,63.29
2015-10-26T00:21:43.954Z,63.76
2015-10-26T00:21:56.251Z,63.39
2015-10-26T00:22:08.563Z,63.67
2015-10-26T00:22:20.863Z,63.29
2015-10-26T00:22:33.175Z,63.29
2015-10-26T00:22:45.472Z,63.39
2015-10-26T00:22:57.769Z,63.29
2015-10-26T00:23:10.082Z,63.01
2015-10-26T00:23:22.382Z,62.72
2015-10-26T00:23:34.678Z,62.53
2015-10-26T00:23:46.975Z,62.15
2015-10-26T00:23:59.288Z,61.77
2015-10-26T00:24:11.600Z,61.68
2015-10-26T00:24:23.916Z,61.3
2015-10-26T00:24:36.228Z,61.49
2015-10-26T00:24:48.556Z,61.3
2015-10-26T00:25:00.885Z,61.4
2015-10-26T00:25:13.213Z,61.3
2015-10-26T00:25:25.543Z,61.3
2015-10-26T00:25:37.902Z,61.21
2015-10-26T00:25:50.199Z,61.3
2015-10-26T00:26:02.496Z,61.58
2015-10-26T00:26:14.793Z,61.4
2015-10-26T00:26:27.108Z,61.3
2015-10-26T00:26:39.405Z,61.68
2015-10-26T00:26:51.702Z,61.21
2015-10-26T00:27:03.999Z,61.21
2015-10-26T00:27:16.296Z,61.02
2015-10-26T00:27:28.610Z,60.92
2015-10-26T00:27:40.907Z,61.02
2015-10-26T00:27:53.204Z,60.83
2015-10-26T00:28:05.501Z,61.02
2015-10-26T00:28:17.813Z,60.73
2015-10-26T00:28:30.130Z,60.64
2015-10-26T00:28:42.442Z,60.83
2015-10-26T00:28:54.755Z,60.64
2015-10-26T00:29:07.067Z,60.73
2015-10-26T00:29:19.380Z,61.02
2015-10-26T00:29:31.679Z,61.3
2015-10-26T00:29:43.976Z,61.68
2015-10-26T00:29:56.288Z,61.21
2015-10-26T00:30:08.585Z,61.21
2015-10-26T00:30:20.882Z,61.58
2015-10-26T00:30:33.197Z,61.4
2015-10-26T00:30:45.494Z,61.3
2015-10-26T00:30:57.791Z,61.3
2015-10-26T00:31:10.119Z,61.58
2015-10-26T00:31:22.447Z,61.77
2015-10-26T00:31:34.763Z,61.87
2015-10-26T00:31:47.075Z,61.87
2015-10-26T00:31:59.404Z,61.77
2015-10-26T00:32:11.747Z,61.77
2015-10-26T00:32:24.044Z,61.77
2015-10-26T00:32:36.359Z,61.87
2015-10-26T00:32:48.656Z,61.77
2015-10-26T00:33:00.952Z,61.4
2015-10-26T00:33:13.265Z,62.15
2015-10-26T00:33:25.406Z,61.87
2015-10-26T00:33:37.705Z,62.05
2015-10-26T00:33:50.002Z,62.15
2015-10-26T00:34:02.315Z,62.05
2015-10-26T00:34:14.612Z,62.24
2015-10-26T00:34:26.924Z,62.34
2015-10-26T00:34:39.223Z,62.34
2015-10-26T00:34:51.536Z,62.72
2015-10-26T00:35:03.848Z,62.62
2015-10-26T00:35:16.145Z,62.53
2015-10-26T00:35:28.457Z,62.24
2015-10-26T00:35:40.804Z,62.34
2015-10-26T00:35:53.132Z,62.43
2015-10-26T00:36:05.460Z,62.43
2015-10-26T00:36:17.804Z,62.72
2015-10-26T00:36:30.101Z,62.43
2015-10-26T00:36:42.401Z,62.24
2015-10-26T00:36:54.698Z,61.96
2015-10-26T00:37:07.010Z,61.77
2015-10-26T00:37:19.307Z,61.68
2015-10-26T00:37:31.604Z,61.68
2015-10-26T00:37:43.904Z,61.77
2015-10-26T00:37:56.216Z,61.87
2015-10-26T00:38:08.529Z,61.77
2015-10-26T00:38:20.826Z,61.96
2015-10-26T00:38:33.123Z,61.77
2015-10-26T00:38:45.438Z,61.68
2015-10-26T00:38:57.751Z,62.05
2015-10-26T00:39:10.079Z,61.96
2015-10-26T00:39:22.391Z,61.96
2015-10-26T00:39:34.704Z,61.77
2015-10-26T00:39:47.050Z,62.15
2015-10-26T00:39:59.378Z,62.05
2015-10-26T00:40:11.706Z,62.15
2015-10-26T00:40:24.018Z,62.15
2015-10-26T00:40:36.315Z,62.15
2015-10-26T00:40:48.615Z,62.15
2015-10-26T00:41:00.912Z,62.05
2015-10-26T00:41:13.224Z,62.05
2015-10-26T00:41:25.521Z,62.15
2015-10-26T00:41:37.818Z,61.96
2015-10-26T00:41:50.118Z,61.87
2015-10-26T00:42:02.431Z,61.87
2015-10-26T00:42:14.727Z,61.87
2015-10-26T00:42:27.024Z,61.87
2015-10-26T00:42:39.321Z,61.96
2015-10-26T00:42:51.652Z,61.87
2015-10-26T00:43:03.965Z,61.77
2015-10-26T00:43:16.293Z,61.77
2015-10-26T00:43:28.465Z,61.87
2015-10-26T00:43:40.793Z,61.87
2015-10-26T00:43:53.123Z,62.15
2015-10-26T00:44:05.451Z,62.05
2015-10-26T00:44:17.764Z,62.24
2015-10-26T00:44:30.045Z,62.43
2015-10-26T00:44:42.357Z,62.34
2015-10-26T00:44:54.657Z,62.43
2015-10-26T00:45:06.954Z,62.34
2015-10-26T00:45:19.251Z,62.05
2015-10-26T00:45:31.564Z,62.15
2015-10-26T00:45:43.860Z,61.77
2015-10-26T00:45:56.176Z,62.15
2015-10-26T00:46:08.473Z,61.49
2015-10-26T00:46:20.785Z,62.05
2015-10-26T00:46:33.082Z,62.15
2015-10-26T00:46:45.395Z,61.77
2015-10-26T00:46:57.726Z,61.68
2015-10-26T00:47:10.038Z,62.05
2015-10-26T00:47:22.351Z,61.58
2015-10-26T00:47:34.663Z,61.3
2015-10-26T00:47:47.038Z,61.3
2015-10-26T00:47:59.384Z,61.49
2015-10-26T00:48:11.728Z,61.21
2015-10-26T00:48:24.025Z,61.3
2015-10-26T00:48:36.337Z,61.3
2015-10-26T00:48:48.634Z,61.3
2015-10-26T00:49:00.950Z,61.3
2015-10-26T00:49:13.246Z,61.4
2015-10-26T00:49:25.543Z,61.3
2015-10-26T00:49:37.840Z,61.49
2015-10-26T00:49:50.137Z,61.3
2015-10-26T00:50:02.453Z,61.3
2015-10-26T00:50:14.749Z,61.58
2015-10-26T00:50:27.046Z,61.96
2015-10-26T00:50:39.343Z,61.77
2015-10-26T00:50:51.656Z,61.87
2015-10-26T00:51:03.971Z,61.87
2015-10-26T00:51:16.284Z,61.77
2015-10-26T00:51:28.596Z,61.77
2015-10-26T00:51:40.924Z,62.05
2015-10-26T00:51:53.252Z,61.87
2015-10-26T00:52:05.599Z,61.96
2015-10-26T00:52:17.896Z,61.77
2015-10-26T00:52:30.193Z,61.68
2015-10-26T00:52:42.490Z,62.05
2015-10-26T00:52:54.802Z,62.05
2015-10-26T00:53:07.102Z,61.77
2015-10-26T00:53:19.415Z,61.87
2015-10-26T00:53:31.712Z,61.4
2015-10-26T00:53:44.055Z,61.49
2015-10-26T00:53:56.352Z,61.58
2015-10-26T00:54:08.635Z,61.58
2015-10-26T00:54:20.932Z,61.49
2015-10-26T00:54:33.214Z,61.58
2015-10-26T00:54:45.510Z,61.58
2015-10-26T00:54:57.839Z,61.4
2015-10-26T00:55:10.153Z,61.4
2015-10-26T00:55:22.466Z,61.58
2015-10-26T00:55:34.778Z,61.58
2015-10-26T00:55:47.106Z,61.68
2015-10-26T00:55:59.434Z,62.05
2015-10-26T00:56:11.766Z,61.58
2015-10-26T00:56:24.110Z,61.68
2015-10-26T00:56:36.407Z,61.58
2015-10-26T00:56:48.704Z,61.4
2015-10-26T00:57:01.001Z,61.4
2015-10-26T00:57:13.300Z,61.49
2015-10-26T00:57:25.612Z,61.3
2015-10-26T00:57:37.909Z,61.3
2015-10-26T00:57:50.206Z,61.49
2015-10-26T00:58:02.503Z,61.4
2015-10-26T00:58:14.803Z,61.49
2015-10-26T00:58:27.100Z,61.4
2015-10-26T00:58:39.412Z,61.58
2015-10-26T00:58:51.725Z,61.3
2015-10-26T00:59:04.037Z,61.21
2015-10-26T00:59:16.353Z,61.49
2015-10-26T00:59:28.665Z,61.68
2015-10-26T00:59:40.978Z,61.58
2015-10-26T00:59:53.321Z,61.49
2015-10-26T01:00:05.649Z,61.4
2015-10-26T01:00:17.981Z,61.49
2015-10-26T01:00:30.309Z,61.58
2015-10-26T01:00:42.684Z,61.02
2015-10-26T01:00:54.981Z,60.83
2015-10-26T01:01:07.277Z,60.64
2015-10-26T01:01:19.576Z,60.44
2015-10-26T01:01:31.873Z,60.25
2015-10-26T01:01:44.186Z,60.16
2015-10-26T01:01:56.467Z,60.06
2015-10-26T01:02:08.764Z,60.06
2015-10-26T01:02:21.079Z,59.78
2015-10-26T01:02:33.376Z,59.78
2015-10-26T01:02:45.673Z,59.69
2015-10-26T01:02:57.986Z,59.78
2015-10-26T01:03:10.282Z,59.72
2015-10-26T01:03:22.598Z,59.63
2015-10-26T01:03:34.910Z,59.44
2015-10-26T01:03:47.223Z,59.53
2015-10-26T01:03:59.535Z,59.5
2015-10-26T01:04:11.848Z,59.53
2015-10-26T01:04:24.178Z,59.72
2015-10-26T01:04:36.506Z,59.63
2015-10-26T01:04:48.834Z,59.72
2015-10-26T01:05:01.178Z,59.69
2015-10-26T01:05:13.506Z,59.78
2015-10-26T01:05:25.806Z,59.53
2015-10-26T01:05:38.119Z,59.5
2015-10-26T01:05:50.415Z,59.59
2015-10-26T01:06:02.728Z,59.59
2015-10-26T01:06:15.025Z,59.78
2015-10-26T01:06:27.340Z,59.69
2015-10-26T01:06:39.637Z,59.5
2015-10-26T01:06:51.934Z,59.22
2015-10-26T01:07:04.247Z,59.31
2015-10-26T01:07:16.559Z,59.22
2015-10-26T01:07:28.859Z,59.31
2015-10-26T01:07:41.156Z,59.12
2015-10-26T01:07:53.468Z,58.84
2015-10-26T01:08:05.796Z,58.84
2015-10-26T01:08:18.109Z,58.65
2015-10-26T01:08:30.423Z,58.65
2015-10-26T01:08:42.736Z,58.45
2015-10-26T01:08:55.080Z,58.48
2015-10-26T01:09:07.408Z,58.36
2015-10-26T01:09:19.752Z,58.17
2015-10-26T01:09:32.052Z,58.29
2015-10-26T01:09:44.349Z,58.36
2015-10-26T01:09:56.646Z,57.92
2015-10-26T01:10:08.943Z,57.64
2015-10-26T01:10:21.256Z,57.73
2015-10-26T01:10:33.586Z,57.54
2015-10-26T01:10:45.883Z,57.54
2015-10-26T01:10:58.164Z,57.35
2015-10-26T01:11:10.492Z,57.44
2015-10-26T01:11:22.789Z,57.44
2015-10-26T01:11:35.089Z,57.35
2015-10-26T01:11:47.386Z,57.35
2015-10-26T01:11:59.698Z,57.64
2015-10-26T01:12:12.011Z,57.35
2015-10-26T01:12:24.323Z,57.25
2015-10-26T01:12:36.638Z,57.16
2015-10-26T01:12:48.966Z,57.25
2015-10-26T01:13:01.294Z,56.97
2015-10-26T01:13:13.638Z,57.16
2015-10-26T01:13:25.981Z,57.16
2015-10-26T01:13:38.282Z,57.16
2015-10-26T01:13:50.579Z,57.16
2015-10-26T01:14:02.876Z,56.87
2015-10-26T01:14:15.173Z,56.87
2015-10-26T01:14:27.485Z,56.4
2015-10-26T01:14:39.800Z,56.4
2015-10-26T01:14:52.112Z,56.59
2015-10-26T01:15:04.409Z,56.4
2015-10-26T01:15:16.722Z,56.49
2015-10-26T01:15:29.034Z,56.49
2015-10-26T01:15:41.365Z,56.49
2015-10-26T01:15:53.678Z,56.21
2015-10-26T01:16:05.990Z,56.4
2015-10-26T01:16:18.318Z,56.21
2015-10-26T01:16:30.647Z,56.3
2015-10-26T01:16:43.025Z,56.21
2015-10-26T01:16:55.321Z,56.12
2015-10-26T01:17:07.618Z,56.4
2015-10-26T01:17:19.915Z,56.21
2015-10-26T01:17:32.212Z,56.21
2015-10-26T01:17:44.527Z,56.21
2015-10-26T01:17:56.902Z,56.49
2015-10-26T01:18:09.198Z,56.4
2015-10-26T01:18:21.495Z,56.3
2015-10-26T01:18:33.811Z,56.49
2015-10-26T01:18:46.108Z,56.49
2015-10-26T01:18:58.405Z,56.49
2015-10-26T01:19:10.701Z,56.59
2015-10-26T01:19:22.998Z,56.87
2015-10-26T01:19:35.328Z,56.87
2015-10-26T01:19:47.657Z,57.35
2015-10-26T01:19:59.969Z,57.25
2015-10-26T01:20:12.282Z,57.25
2015-10-26T01:20:24.610Z,57.06
2015-10-26T01:20:36.956Z,57.16
2015-10-26T01:20:49.285Z,57.35
2015-10-26T01:21:01.581Z,57.25
2015-10-26T01:21:13.878Z,57.54
2015-10-26T01:21:26.175Z,57.35
2015-10-26T01:21:38.475Z,57.54
2015-10-26T01:21:50.788Z,57.54
2015-10-26T01:22:03.084Z,57.54
2015-10-26T01:22:15.381Z,57.44
2015-10-26T01:22:27.678Z,57.82
2015-10-26T01:22:39.978Z,57.64
2015-10-26T01:22:52.291Z,57.82
2015-10-26T01:23:04.587Z,57.64
2015-10-26T01:23:16.884Z,57.54
2015-10-26T01:23:29.197Z,57.25
2015-10-26T01:23:41.527Z,56.4
2015-10-26T01:23:53.839Z,56.21
2015-10-26T01:24:06.152Z,56.02
2015-10-26T01:24:18.480Z,55.93
2015-10-26T01:24:30.808Z,55.83
2015-10-26T01:24:43.156Z,55.74
2015-10-26T01:24:55.484Z,55.93
2015-10-26T01:25:07.781Z,55.83
2015-10-26T01:25:20.093Z,55.74
2015-10-26T01:25:32.390Z,55.83
2015-10-26T01:25:44.689Z,56.12
2015-10-26T01:25:57.017Z,56.12
2015-10-26T01:26:09.314Z,56.02
2015-10-26T01:26:21.627Z,56.02
2015-10-26T01:26:33.924Z,56.12
2015-10-26T01:26:46.223Z,56.12
2015-10-26T01:26:58.520Z,56.12
2015-10-26T01:27:10.817Z,56.3
2015-10-26T01:27:23.114Z,56.49
2015-10-26T01:27:35.427Z,56.49
2015-10-26T01:27:47.741Z,56.59
2015-10-26T01:28:00.054Z,56.68
2015-10-26T01:28:12.382Z,56.3
2015-10-26T01:28:24.710Z,56.12
2015-10-26T01:28:37.022Z,56.21
2015-10-26T01:28:49.354Z,56.21
2015-10-26T01:29:01.636Z,55.83
2015-10-26T01:29:13.933Z,55.74
2015-10-26T01:29:26.214Z,55.64
2015-10-26T01:29:38.495Z,55.64
2015-10-26T01:29:50.810Z,55.55
2015-10-26T01:30:03.106Z,55.74
2015-10-26T01:30:15.419Z,55.83
2015-10-26T01:30:27.716Z,55.45
2015-10-26T01:30:40.044Z,55.55
2015-10-26T01:30:52.359Z,55.55
2015-10-26T01:31:04.656Z,55.55
2015-10-26T01:31:16.953Z,55.64
2015-10-26T01:31:29.250Z,55.74
2015-10-26T01:31:41.563Z,55.55
2015-10-26T01:31:53.877Z,55.64
2015-10-26T01:32:06.190Z,55.55
2015-10-26T01:32:18.518Z,55.45
2015-10-26T01:32:30.846Z,55.45
2015-10-26T01:32:43.174Z,55.26
2015-10-26T01:32:55.521Z,55.26
2015-10-26T01:33:07.849Z,54.98
2015-10-26T01:33:20.193Z,55.17
2015-10-26T01:33:32.521Z,54.88
2015-10-26T01:33:44.818Z,54.88
2015-10-26T01:33:57.133Z,54.5
2015-10-26T01:34:09.430Z,54.79
2015-10-26T01:34:21.727Z,54.79
2015-10-26T01:34:34.024Z,54.88
2015-10-26T01:34:46.321Z,54.69
2015-10-26T01:34:58.636Z,54.69
2015-10-26T01:35:10.933Z,54.69
2015-10-26T01:35:23.245Z,54.88
2015-10-26T01:35:35.542Z,54.88
2015-10-26T01:35:47.839Z,54.88
2015-10-26T01:36:00.155Z,54.79
2015-10-26T01:36:12.452Z,54.69
2015-10-26T01:36:24.764Z,54.79
2015-10-26T01:36:37.092Z,54.79
2015-10-26T01:36:49.248Z,55.17
2015-10-26T01:37:01.563Z,55.07
2015-10-26T01:37:13.907Z,54.98
2015-10-26T01:37:26.250Z,54.6
2015-10-26T01:37:38.579Z,54.41
2015-10-26T01:37:50.907Z,54.79
2015-10-26T01:38:03.207Z,54.6
2015-10-26T01:38:15.503Z,54.5
2015-10-26T01:38:27.800Z,54.41
2015-10-26T01:38:40.113Z,54.22
2015-10-26T01:38:52.410Z,54.6
2015-10-26T01:39:04.741Z,54.5
2015-10-26T01:39:17.038Z,53.94
2015-10-26T01:39:29.335Z,54.13
2015-10-26T01:39:41.631Z,53.94
2015-10-26T01:39:53.928Z,53.94
2015-10-26T01:40:06.227Z,53.37
2015-10-26T01:40:18.540Z,53.75
2015-10-26T01:40:30.852Z,53.75
2015-10-26T01:40:43.165Z,53.65
2015-10-26T01:40:55.462Z,53.84
2015-10-26T01:41:07.636Z,53.46
2015-10-26T01:41:19.949Z,53.94
2015-10-26T01:41:32.277Z,53.84
2015-10-26T01:41:44.621Z,53.75
2015-10-26T01:41:56.949Z,54.22
2015-10-26T01:42:09.280Z,54.13
2015-10-26T01:42:21.593Z,54.5
2015-10-26T01:42:33.889Z,54.41
2015-10-26T01:42:46.186Z,54.41
2015-10-26T01:42:58.530Z,54.22
2015-10-26T01:43:10.829Z,54.41
2015-10-26T01:43:23.141Z,54.5
2015-10-26T01:43:35.438Z,54.6
2015-10-26T01:43:47.735Z,54.6
2015-10-26T01:44:00.048Z,54.69
2015-10-26T01:44:12.363Z,54.6
2015-10-26T01:44:24.660Z,54.5
2015-10-26T01:44:36.957Z,54.5
2015-10-26T01:44:49.269Z,54.41
2015-10-26T01:45:01.598Z,53.94
2015-10-26T01:45:13.913Z,54.13
2015-10-26T01:45:26.226Z,54.22
2015-10-26T01:45:38.554Z,54.03
2015-10-26T01:45:50.882Z,54.13
2015-10-26T01:46:03.210Z,54.13
2015-10-26T01:46:15.541Z,53.94
2015-10-26T01:46:27.838Z,54.13
2015-10-26T01:46:40.135Z,54.32
2015-10-26T01:46:52.447Z,54.41
2015-10-26T01:47:04.760Z,54.5
2015-10-26T01:47:17.060Z,54.03
2015-10-26T01:47:29.357Z,54.13
2015-10-26T01:47:41.653Z,54.03
2015-10-26T01:47:53.966Z,54.13
2015-10-26T01:48:06.278Z,54.13
2015-10-26T01:48:18.578Z,54.13
2015-10-26T01:48:30.875Z,54.13
2015-10-26T01:48:43.188Z,54.22
2015-10-26T01:48:55.500Z,54.22
2015-10-26T01:49:07.828Z,54.22
2015-10-26T01:49:20.158Z,54.32
2015-10-26T01:49:32.471Z,53.84
2015-10-26T01:49:44.799Z,53.75
2015-10-26T01:49:57.127Z,53.75
2015-10-26T01:50:09.455Z,54.03
2015-10-26T01:50:21.786Z,53.56
2015-10-26T01:50:34.130Z,53.46
2015-10-26T01:50:46.427Z,53.08
2015-10-26T01:50:58.724Z,53.08
2015-10-26T01:51:11.021Z,52.98
2015-10-26T01:51:23.336Z,52.89
2015-10-26T01:51:35.649Z,52.98
2015-10-26T01:51:47.946Z,52.89
2015-10-26T01:52:00.243Z,52.7
2015-10-26T01:52:12.555Z,52.42
2015-10-26T01:52:24.886Z,52.33
2015-10-26T01:52:37.199Z,52.14
2015-10-26T01:52:49.511Z,52.42
2015-10-26T01:53:01.839Z,52.51
2015-10-26T01:53:14.167Z,52.33
2015-10-26T01:53:26.483Z,52.33
2015-10-26T01:53:38.780Z,52.61
2015-10-26T01:53:51.092Z,52.7
2015-10-26T01:54:03.389Z,52.98
2015-10-26T01:54:15.717Z,52.98
2015-10-26T01:54:28.033Z,53.27
2015-10-26T01:54:40.330Z,53.18
2015-10-26T01:54:52.642Z,53.18
2015-10-26T01:55:04.939Z,53.08
2015-10-26T01:55:17.267Z,52.89
2015-10-26T01:55:29.582Z,52.89
2015-10-26T01:55:41.894Z,53.08
2015-10-26T01:55:54.222Z,53.08
2015-10-26T01:56:06.550Z,53.08
2015-10-26T01:56:18.879Z,53.37
2015-10-26T01:56:31.210Z,53.27
2015-10-26T01:56:43.553Z,53.37
2015-10-26T01:56:55.897Z,52.89
2015-10-26T01:57:07.897Z,52.98
2015-10-26T01:57:19.913Z,52.8
2015-10-26T01:57:32.260Z,52.51
2015-10-26T01:57:44.416Z,52.42
2015-10-26T01:57:57.353Z,52.04
2015-10-26T01:58:09.666Z,52.04
2015-10-26T01:58:21.978Z,51.95
2015-10-26T01:58:34.277Z,52.23
2015-10-26T01:58:46.590Z,51.95
2015-10-26T01:58:58.887Z,52.04
2015-10-26T01:59:11.183Z,52.33
2015-10-26T01:59:23.480Z,52.33
2015-10-26T01:59:35.640Z,52.42
2015-10-26T01:59:47.952Z,52.23
2015-10-26T02:00:00.265Z,52.23
2015-10-26T02:00:12.577Z,52.42
2015-10-26T02:00:24.936Z,52.14
2015-10-26T02:00:37.267Z,52.14
2015-10-26T02:00:49.610Z,52.14
2015-10-26T02:01:01.907Z,52.14
2015-10-26T02:01:14.204Z,52.14
2015-10-26T02:01:26.501Z,52.14
2015-10-26T02:01:38.801Z,51.95
2015-10-26T02:01:51.113Z,51.66
2015-10-26T02:02:03.410Z,51.28
2015-10-26T02:02:15.707Z,51.28
2015-10-26T02:02:28.035Z,51.18
2015-10-26T02:02:40.335Z,51.37
2015-10-26T02:02:52.648Z,51.18
2015-10-26T02:03:04.944Z,51.28
2015-10-26T02:03:17.257Z,51.95
2015-10-26T02:03:29.554Z,51.76
2015-10-26T02:03:41.869Z,52.14
2015-10-26T02:03:54.166Z,52.04
2015-10-26T02:04:06.463Z,52.42
2015-10-26T02:04:18.776Z,52.51
2015-10-26T02:04:31.090Z,52.33
2015-10-26T02:04:43.434Z,52.42
2015-10-26T02:04:55.746Z,52.61
2015-10-26T02:05:08.043Z,52.8
2015-10-26T02:05:20.340Z,52.8
2015-10-26T02:05:32.641Z,53.18
2015-10-26T02:05:44.938Z,53.08
2015-10-26T02:05:57.250Z,52.98
2015-10-26T02:06:09.547Z,53.08
2015-10-26T02:06:21.922Z,52.89
2015-10-26T02:06:34.237Z,52.98
2015-10-26T02:06:46.534Z,52.89
2015-10-26T02:06:58.830Z,53.08
2015-10-26T02:07:11.127Z,52.8
2015-10-26T02:07:23.440Z,52.8
2015-10-26T02:07:35.754Z,52.7
2015-10-26T02:07:48.067Z,52.8
2015-10-26T02:08:00.379Z,52.98
2015-10-26T02:08:12.692Z,53.08
2015-10-26T02:08:25.004Z,52.98
2015-10-26T02:08:37.335Z,52.98
2015-10-26T02:08:49.664Z,52.98
2015-10-26T02:09:01.992Z,52.98
2015-10-26T02:09:14.304Z,52.98
2015-10-26T02:09:26.601Z,53.27
2015-10-26T02:09:38.902Z,52.7
2015-10-26T02:09:51.058Z,52.51
2015-10-26T02:10:03.355Z,52.61
2015-10-26T02:10:15.683Z,52.51
2015-10-26T02:10:27.980Z,52.33
2015-10-26T02:10:40.279Z,52.33
2015-10-26T02:10:52.591Z,52.14
2015-10-26T02:11:04.920Z,52.04
2015-10-26T02:11:17.232Z,52.23
2015-10-26T02:11:29.545Z,52.42
2015-10-26T02:11:41.876Z,52.42
2015-10-26T02:11:54.204Z,52.51
2015-10-26T02:12:06.501Z,52.61
2015-10-26T02:12:18.798Z,53.08
2015-10-26T02:12:31.094Z,52.98
2015-10-26T02:12:43.393Z,52.98
2015-10-26T02:12:55.706Z,52.8
2015-10-26T02:13:08.003Z,52.98
2015-10-26T02:13:20.300Z,53.08
2015-10-26T02:13:32.596Z,52.89
2015-10-26T02:13:44.913Z,52.89
2015-10-26T02:13:57.210Z,52.98
2015-10-26T02:14:09.522Z,52.89
2015-10-26T02:14:21.819Z,52.89
2015-10-26T02:14:34.132Z,52.89
2015-10-26T02:14:46.462Z,52.89
2015-10-26T02:14:58.774Z,53.08
2015-10-26T02:15:11.087Z,52.98
2015-10-26T02:15:23.399Z,53.08
2015-10-26T02:15:35.743Z,52.61
2015-10-26T02:15:48.074Z,52.42
2015-10-26T02:16:00.387Z,51.85
2015-10-26T02:16:12.699Z,51.37
2015-10-26T02:16:25.027Z,51.37
2015-10-26T02:16:37.324Z,51.18
2015-10-26T02:16:49.640Z,51.85
2015-10-26T02:17:01.937Z,51.85
2015-10-26T02:17:14.233Z,52.04
2015-10-26T02:17:26.530Z,51.85
2015-10-26T02:17:38.843Z,52.14
2015-10-26T02:17:51.142Z,52.04
2015-10-26T02:18:03.439Z,52.04
2015-10-26T02:18:15.751Z,52.14
2015-10-26T02:18:28.064Z,52.42
2015-10-26T02:18:40.376Z,52.7
2015-10-26T02:18:52.707Z,52.7
2015-10-26T02:19:05.020Z,52.8
2015-10-26T02:19:17.332Z,52.8
2015-10-26T02:19:29.504Z,52.7
2015-10-26T02:19:41.848Z,52.8
2015-10-26T02:19:54.178Z,53.18
2015-10-26T02:20:06.475Z,53.08
2015-10-26T02:20:18.787Z,52.89
2015-10-26T02:20:31.084Z,52.89
2015-10-26T02:20:43.381Z,52.98
2015-10-26T02:20:55.681Z,52.89
2015-10-26T02:21:07.993Z,52.98
2015-10-26T02:21:20.306Z,53.08
2015-10-26T02:21:32.603Z,53.18
2015-10-26T02:21:44.915Z,53.46
2015-10-26T02:21:57.215Z,53.46
2015-10-26T02:22:09.512Z,54.03
2015-10-26T02:22:21.809Z,53.84
2015-10-26T02:22:34.121Z,53.84
2015-10-26T02:22:46.450Z,53.84
2015-10-26T02:22:58.766Z,53.94
2015-10-26T02:23:11.063Z,53.75
2015-10-26T02:23:23.391Z,54.32
2015-10-26T02:23:35.719Z,54.41
2015-10-26T02:23:48.047Z,54.32
2015-10-26T02:24:00.409Z,54.32
2015-10-26T02:24:12.690Z,53.65
2015-10-26T02:24:24.987Z,53.37
2015-10-26T02:24:37.299Z,53.84
2015-10-26T02:24:49.612Z,53.65
2015-10-26T02:25:01.911Z,53.84
2015-10-26T02:25:14.223Z,53.84
2015-10-26T02:25:26.520Z,53.46
2015-10-26T02:25:38.817Z,53.75
2015-10-26T02:25:51.114Z,53.84
2015-10-26T02:26:03.429Z,53.75
2015-10-26T02:26:15.726Z,53.37
2015-10-26T02:26:28.023Z,53.27
2015-10-26T02:26:40.336Z,53.56
2015-10-26T02:26:52.648Z,53.37
2015-10-26T02:27:04.964Z,53.18
2015-10-26T02:27:17.276Z,53.46
2015-10-26T02:27:29.589Z,53.56
2015-10-26T02:27:41.917Z,53.27
2015-10-26T02:27:54.260Z,53.84
2015-10-26T02:28:06.606Z,54.03
2015-10-26T02:28:18.903Z,53.84
2015-10-26T02:28:31.200Z,54.22
2015-10-26T02:28:43.497Z,53.94
2015-10-26T02:28:55.794Z,54.22
2015-10-26T02:29:08.109Z,54.41
2015-10-26T02:29:20.406Z,54.79
2015-10-26T02:29:32.703Z,54.88
2015-10-26T02:29:45.000Z,54.79
2015-10-26T02:29:57.344Z,54.69
2015-10-26T02:30:09.660Z,54.98
2015-10-26T02:30:21.973Z,54.98
2015-10-26T02:30:34.285Z,55.07
2015-10-26T02:30:46.613Z,54.88
2015-10-26T02:30:58.941Z,54.79
2015-10-26T02:31:11.240Z,54.88
2015-10-26T02:31:23.537Z,54.79
2015-10-26T02:31:35.834Z,54.88
2015-10-26T02:31:48.131Z,55.26
2015-10-26T02:32:00.443Z,55.07
2015-10-26T02:32:12.743Z,55.17
2015-10-26T02:32:25.056Z,55.17
2015-10-26T02:32:37.353Z,54.79
2015-10-26T02:32:49.665Z,54.79
2015-10-26T02:33:01.978Z,54.98
2015-10-26T02:33:14.293Z,54.69
2015-10-26T02:33:26.606Z,54.69
2015-10-26T02:33:38.934Z,54.79
2015-10-26T02:33:51.277Z,54.69
2015-10-26T02:34:03.606Z,54.5
2015-10-26T02:34:15.921Z,54.6
2015-10-26T02:34:28.218Z,54.79
2015-10-26T02:34:40.515Z,54.32
2015-10-26T02:34:52.827Z,54.6
2015-10-26T02:35:05.124Z,54.6
2015-10-26T02:35:17.423Z,54.79
2015-10-26T02:35:29.720Z,54.98
2015-10-26T02:35:42.017Z,54.98
2015-10-26T02:35:54.329Z,54.98
2015-10-26T02:36:06.626Z,55.17
2015-10-26T02:36:18.926Z,54.98
2015-10-26T02:36:31.223Z,54.88
2015-10-26T02:36:43.535Z,55.07
2015-10-26T02:36:55.864Z,54.69
2015-10-26T02:37:08.176Z,54.6
2015-10-26T02:37:20.492Z,54.6
2015-10-26T02:37:32.804Z,54.6
2015-10-26T02:37:45.117Z,54.6
2015-10-26T02:37:57.460Z,54.6
2015-10-26T02:38:09.788Z,54.6
2015-10-26T02:38:22.119Z,54.69
2015-10-26T02:38:34.462Z,54.6
2015-10-26T02:38:46.790Z,54.5
2015-10-26T02:38:59.087Z,54.13
2015-10-26T02:39:11.384Z,54.5